Time;durP1;ratioP1;P1;durP2;ratioP2;P2;SDS_P1;SDS_P2;PMS_P1;PMS_P2;Temp;Humidity;BMP_temperature;BMP_pressure;BME280_temperature;BME280_humidity;BME280_pressure;Samples;Min_cycle;Max_cycle;Signal;HPM_P1;HPM_P2
2023/11/17 00:01:07;;;;;;;12.40;6.28;;;6.40;99.90;;;;;;5076518;28;20068;-60
2023/11/17 00:03:34;;;;;;;13.90;6.90;;;6.40;99.90;;;;;;5093544;28;20424;-60
2023/11/17 00:06:03;;;;;;;15.95;6.93;;;6.50;99.90;;;;;;5092470;28;20397;-61
2023/11/17 00:08:31;;;;;;;13.05;6.47;;;6.50;99.90;;;;;;5094032;28;20087;-61
2023/11/17 00:10:58;;;;;;;17.80;6.53;;;6.50;99.90;;;;;;5094203;28;20456;-60
2023/11/17 00:13:25;;;;;;;15.25;6.18;;;6.50;99.90;;;;;;5094789;28;20103;-60
2023/11/17 00:15:52;;;;;;;11.30;6.03;;;6.40;99.90;;;;;;5096142;28;20123;-60
2023/11/17 00:18:20;;;;;;;14.77;6.15;;;6.40;99.90;;;;;;5095317;28;20047;-60
2023/11/17 00:20:47;;;;;;;11.77;5.88;;;6.40;99.90;;;;;;5096259;28;20063;-61
2023/11/17 00:23:14;;;;;;;14.85;6.30;;;6.40;99.90;;;;;;5096118;28;20485;-60
2023/11/17 00:25:41;;;;;;;11.55;5.97;;;6.40;99.90;;;;;;5096700;28;20071;-60
2023/11/17 00:28:07;;;;;;;13.63;6.13;;;6.40;99.90;;;;;;5096195;28;20048;-61
2023/11/17 00:30:34;;;;;;;13.70;6.28;;;6.40;99.90;;;;;;5095959;28;20105;-60
2023/11/17 00:33:01;;;;;;;14.20;6.75;;;6.40;99.90;;;;;;5094505;28;20040;-60
2023/11/17 00:35:28;;;;;;;14.80;6.60;;;6.30;99.90;;;;;;5096038;28;20107;-60
2023/11/17 00:37:55;;;;;;;14.07;6.57;;;6.30;99.90;;;;;;5095968;28;20143;-60
2023/11/17 00:40:21;;;;;;;11.35;6.15;;;6.20;99.90;;;;;;5095761;28;20040;-60
2023/11/17 00:42:48;;;;;;;15.40;6.55;;;6.20;99.90;;;;;;5094622;28;20048;-61
2023/11/17 00:45:15;;;;;;;15.27;6.53;;;6.20;99.90;;;;;;5096081;28;20042;-67
2023/11/17 00:47:42;;;;;;;14.90;6.28;;;6.20;99.90;;;;;;5094926;28;20143;-67
2023/11/17 00:50:11;;;;;;;17.63;6.50;;;6.20;99.90;;;;;;5095907;28;20036;-67
2023/11/17 00:52:39;;;;;;;15.65;6.68;;;6.20;99.90;;;;;;5096254;28;20047;-67
2023/11/17 00:55:07;;;;;;;13.15;5.75;;;6.20;99.90;;;;;;5094875;28;20048;-67
2023/11/17 00:57:34;;;;;;;13.98;6.03;;;6.20;99.90;;;;;;5094427;28;20063;-67
2023/11/17 01:00:01;;;;;;;9.88;6.07;;;6.30;99.90;;;;;;5094573;28;20071;-66
2023/11/17 01:02:28;;;;;;;10.40;5.60;;;6.30;99.90;;;;;;5095727;28;20410;-67
2023/11/17 01:04:55;;;;;;;13.85;5.38;;;6.30;99.90;;;;;;5095779;28;20048;-67
2023/11/17 01:07:22;;;;;;;9.10;5.43;;;6.40;99.90;;;;;;5094079;28;20048;-66
2023/11/17 01:09:49;;;;;;;11.18;5.53;;;6.40;99.90;;;;;;5095172;28;20040;-67
2023/11/17 01:12:16;;;;;;;10.65;4.53;;;6.40;99.90;;;;;;5077624;28;20127;-67
2023/11/17 01:14:43;;;;;;;9.32;4.75;;;6.40;99.90;;;;;;5094076;28;20040;-66
2023/11/17 01:17:11;;;;;;;7.88;3.80;;;6.50;99.90;;;;;;5094017;28;20090;-66
2023/11/17 01:19:40;;;;;;;5.43;2.95;;;6.40;99.90;;;;;;5094198;28;20127;-65
2023/11/17 01:22:07;;;;;;;5.32;2.90;;;6.50;99.90;;;;;;5095257;28;20039;-66
2023/11/17 01:24:34;;;;;;;8.43;2.90;;;6.50;99.90;;;;;;5093691;28;20036;-66
2023/11/17 01:27:04;;;;;;;7.45;2.72;;;6.50;99.90;;;;;;5094906;28;20038;-66
2023/11/17 01:29:31;;;;;;;8.10;2.65;;;6.60;99.90;;;;;;5093843;28;20047;-66
2023/11/17 01:31:58;;;;;;;6.40;2.70;;;6.60;99.90;;;;;;5093668;28;20055;-66
2023/11/17 01:34:25;;;;;;;9.88;2.88;;;6.60;99.90;;;;;;5095088;28;20427;-65
2023/11/17 01:36:52;;;;;;;8.55;2.65;;;6.70;99.90;;;;;;5094739;28;20044;-66
2023/11/17 01:39:20;;;;;;;7.05;2.28;;;6.70;99.90;;;;;;5093385;28;20054;-67
2023/11/17 01:41:47;;;;;;;7.72;2.10;;;6.70;99.90;;;;;;5093244;28;20040;-66
2023/11/17 01:44:14;;;;;;;3.40;1.70;;;6.70;99.90;;;;;;5094516;28;20058;-66
2023/11/17 01:46:41;;;;;;;5.35;1.90;;;6.70;99.90;;;;;;5093317;28;20473;-66
2023/11/17 01:49:08;;;;;;;4.40;1.77;;;6.70;99.90;;;;;;5093216;28;20060;-67
2023/11/17 01:51:35;;;;;;;5.97;1.70;;;6.70;99.90;;;;;;5094539;28;20111;-66
2023/11/17 01:54:02;;;;;;;3.35;1.40;;;6.70;99.90;;;;;;5094550;28;20048;-67
2023/11/17 01:56:29;;;;;;;5.95;2.42;;;6.70;99.90;;;;;;5094362;28;20048;-67
2023/11/17 01:58:56;;;;;;;6.32;2.08;;;6.60;99.90;;;;;;5076160;28;20101;-66
2023/11/17 02:01:25;;;;;;;5.38;2.00;;;6.60;99.90;;;;;;5092913;28;20048;-66
2023/11/17 02:03:52;;;;;;;4.93;1.30;;;6.60;99.90;;;;;;5094649;28;20397;-66
2023/11/17 02:06:22;;;;;;;3.20;1.30;;;6.50;99.90;;;;;;5092833;28;20044;-66
2023/11/17 02:08:51;;;;;;;4.80;1.33;;;6.50;99.90;;;;;;5093095;28;20040;-66
2023/11/17 02:11:18;;;;;;;5.63;1.48;;;6.50;99.90;;;;;;5093439;28;20042;-66
2023/11/17 02:13:45;;;;;;;5.25;1.58;;;6.40;99.90;;;;;;5093953;28;20086;-61
2023/11/17 02:16:17;;;;;;;4.88;1.25;;;6.40;99.90;;;;;;5093089;28;20044;-61
2023/11/17 02:18:45;;;;;;;5.35;1.38;;;6.40;99.90;;;;;;5092536;28;20048;-61
2023/11/17 02:21:12;;;;;;;3.08;1.52;;;6.30;99.90;;;;;;5093145;28;20107;-60
2023/11/17 02:23:39;;;;;;;4.07;1.25;;;6.30;99.90;;;;;;5092983;28;20075;-60
2023/11/17 02:26:15;;;;;;;2.55;1.20;;;6.20;99.90;;;;;;5094084;28;20044;-60
2023/11/17 02:28:42;;;;;;;4.80;1.35;;;6.20;99.90;;;;;;5092573;28;20473;-61
2023/11/17 02:31:16;;;;;;;3.85;1.50;;;6.10;99.90;;;;;;5093828;28;20115;-60
2023/11/17 02:33:48;;;;;;;4.68;1.55;;;6.10;99.90;;;;;;5093658;28;20126;-61
2023/11/17 02:36:19;;;;;;;3.47;1.17;;;6.00;99.90;;;;;;5092295;28;20047;-61
2023/11/17 02:38:46;;;;;;;5.32;1.33;;;6.00;99.90;;;;;;5092870;28;20130;-60
2023/11/17 02:41:18;;;;;;;4.93;1.40;;;6.00;99.90;;;;;;5092210;28;20039;-60
2023/11/17 02:43:48;;;;;;;4.13;1.08;;;6.00;99.90;;;;;;5091990;28;20048;-60
2023/11/17 02:46:20;;;;;;;5.78;1.67;;;5.90;99.90;;;;;;5092477;28;20078;-63
2023/11/17 02:48:47;;;;;;;3.20;1.52;;;5.90;99.90;;;;;;5092019;28;20046;-60
2023/11/17 02:51:27;;;;;;;5.13;1.45;;;5.80;99.90;;;;;;5093355;28;20040;-60
2023/11/17 02:53:55;;;;;;;3.13;1.30;;;5.80;99.90;;;;;;5093786;28;20039;-60
2023/11/17 02:56:22;;;;;;;4.38;1.20;;;5.80;99.90;;;;;;5092263;28;20067;-60
2023/11/17 02:58:54;;;;;;;3.78;1.20;;;5.70;99.90;;;;;;5093655;28;20076;-61
2023/11/17 03:01:21;;;;;;;5.22;1.27;;;5.70;99.90;;;;;;5093930;28;20040;-60
2023/11/17 03:03:48;;;;;;;3.80;1.23;;;5.70;99.90;;;;;;5093545;28;20504;-60
2023/11/17 03:06:15;;;;;;;3.10;1.17;;;5.70;99.90;;;;;;5092078;28;20068;-60
2023/11/17 03:08:42;;;;;;;4.60;1.30;;;5.70;99.90;;;;;;5092289;28;20032;-61
2023/11/17 03:11:09;;;;;;;4.18;1.23;;;5.70;99.90;;;;;;5093358;28;20105;-60
2023/11/17 03:13:36;;;;;;;3.63;1.10;;;5.70;99.90;;;;;;5090012;28;20036;-60
2023/11/17 03:16:04;;;;;;;4.75;1.60;;;5.70;99.90;;;;;;5055711;28;20135;-60
2023/11/17 03:18:38;;;;;;;3.55;1.30;;;5.70;99.90;;;;;;5072966;28;20041;-60
2023/11/17 03:21:05;;;;;;;3.95;1.25;;;5.70;99.90;;;;;;5072295;28;20401;-62
2023/11/17 03:23:34;;;;;;;4.22;1.27;;;5.70;99.90;;;;;;5072443;28;20154;-60
2023/11/17 03:26:01;;;;;;;4.60;1.40;;;5.60;99.90;;;;;;5071686;28;20072;-60
2023/11/17 03:28:28;;;;;;;3.38;1.42;;;5.60;99.90;;;;;;5073427;28;20096;-61
2023/11/17 03:30:55;;;;;;;5.22;1.65;;;5.60;99.90;;;;;;5073373;28;20037;-60
2023/11/17 03:33:22;;;;;;;3.30;1.77;;;5.60;99.90;;;;;;5072926;28;20041;-60
2023/11/17 03:35:50;;;;;;;4.68;1.40;;;5.60;99.90;;;;;;5071989;28;20049;-60
2023/11/17 03:38:17;;;;;;;3.35;1.70;;;5.50;99.90;;;;;;5072818;28;20067;-60
2023/11/17 03:40:43;;;;;;;5.15;1.90;;;5.50;99.90;;;;;;5072967;28;20119;-60
2023/11/17 03:43:13;;;;;;;3.53;1.98;;;5.50;99.90;;;;;;5071708;28;20040;-61
2023/11/17 03:45:40;;;;;;;3.15;1.98;;;5.50;99.90;;;;;;5072713;28;20051;-60
2023/11/17 03:48:06;;;;;;;5.03;1.83;;;5.50;99.90;;;;;;5072770;28;20394;-60
2023/11/17 03:50:38;;;;;;;6.05;2.40;;;5.50;99.90;;;;;;5071925;28;20072;-60
2023/11/17 03:53:05;;;;;;;10.40;2.50;;;5.50;99.90;;;;;;5071992;28;20041;-60
2023/11/17 03:55:32;;;;;;;3.40;2.40;;;5.40;99.90;;;;;;5076299;28;20044;-60
2023/11/17 03:57:59;;;;;;;6.72;2.30;;;5.40;99.90;;;;;;5075095;28;20045;-60
2023/11/17 04:00:28;;;;;;;5.80;2.20;;;5.40;99.90;;;;;;5076528;28;20040;-61
2023/11/17 04:02:57;;;;;;;5.90;2.47;;;5.40;99.90;;;;;;5076581;28;20067;-61
2023/11/17 04:05:25;;;;;;;7.47;2.30;;;5.40;99.90;;;;;;5075508;28;20086;-61
2023/11/17 04:07:55;;;;;;;6.90;2.25;;;5.40;99.90;;;;;;5076312;28;20086;-60
2023/11/17 04:10:23;;;;;;;5.55;2.33;;;5.40;99.90;;;;;;5076125;28;20041;-60
2023/11/17 04:12:53;;;;;;;8.13;2.45;;;5.40;99.90;;;;;;5076195;28;20115;-63
2023/11/17 04:15:21;;;;;;;3.97;2.10;;;5.30;99.90;;;;;;5076494;28;20043;-60
2023/11/17 04:17:47;;;;;;;9.52;2.42;;;5.30;99.90;;;;;;5075085;28;20384;-60
2023/11/17 04:20:18;;;;;;;7.43;2.40;;;5.30;99.90;;;;;;5076440;28;20048;-60
2023/11/17 04:22:45;;;;;;;9.15;2.65;;;5.30;99.90;;;;;;5075808;28;20067;-60
2023/11/17 04:25:12;;;;;;;7.35;3.00;;;5.20;99.90;;;;;;5075813;28;20094;-60
2023/11/17 04:27:41;;;;;;;7.68;2.33;;;5.30;99.90;;;;;;5075860;28;20472;-60
2023/11/17 04:30:09;;;;;;;7.55;2.38;;;5.30;99.90;;;;;;5075608;28;20052;-60
2023/11/17 04:32:35;;;;;;;6.53;2.17;;;5.20;99.90;;;;;;5075477;28;20059;-60
2023/11/17 04:35:03;;;;;;;6.55;2.33;;;5.20;99.90;;;;;;5075309;28;20049;-61
2023/11/17 04:37:30;;;;;;;5.32;2.10;;;5.20;99.90;;;;;;5075630;28;20040;-65
2023/11/17 04:39:57;;;;;;;10.52;2.10;;;5.20;99.90;;;;;;5086833;28;20032;-60
2023/11/17 04:42:24;;;;;;;6.70;2.25;;;5.20;99.90;;;;;;5095610;28;20115;-60
2023/11/17 04:44:51;;;;;;;3.22;1.85;;;5.20;99.90;;;;;;5095895;28;20044;-60
2023/11/17 04:47:17;;;;;;;7.97;2.22;;;5.20;99.90;;;;;;5095769;28;20085;-60
2023/11/17 04:49:45;;;;;;;6.38;2.17;;;5.10;99.90;;;;;;5096012;28;20127;-61
2023/11/17 04:52:12;;;;;;;6.25;2.40;;;5.10;99.90;;;;;;5095416;28;20040;-60
2023/11/17 04:54:39;;;;;;;10.98;2.17;;;5.10;99.90;;;;;;5095672;28;20093;-60
2023/11/17 04:57:08;;;;;;;5.88;2.13;;;5.20;99.90;;;;;;5095641;28;20491;-60
2023/11/17 04:59:35;;;;;;;4.40;1.88;;;5.20;99.90;;;;;;5095567;28;20067;-61
2023/11/17 05:02:02;;;;;;;10.80;2.35;;;5.20;99.90;;;;;;5095265;28;20040;-61
2023/11/17 05:04:29;;;;;;;7.15;2.35;;;5.20;99.90;;;;;;5095191;28;20486;-60
2023/11/17 05:06:56;;;;;;;5.43;2.22;;;5.20;99.90;;;;;;5095167;28;20438;-60
2023/11/17 05:09:23;;;;;;;7.95;2.17;;;5.30;99.90;;;;;;5094997;28;20043;-60
2023/11/17 05:11:50;;;;;;;5.80;2.10;;;5.30;99.90;;;;;;5095696;28;20086;-60
2023/11/17 05:14:17;;;;;;;6.82;2.35;;;5.30;99.90;;;;;;5095028;28;20036;-60
2023/11/17 05:16:45;;;;;;;6.70;2.60;;;5.30;99.90;;;;;;5095148;28;20044;-60
2023/11/17 05:19:14;;;;;;;10.52;2.40;;;5.30;99.90;;;;;;5094995;28;20461;-60
2023/11/17 05:21:42;;;;;;;6.97;2.35;;;5.30;99.90;;;;;;5095032;28;20047;-62
2023/11/17 05:24:08;;;;;;;4.80;2.25;;;5.30;99.90;;;;;;5094897;28;20044;-59
2023/11/17 05:26:35;;;;;;;5.57;2.13;;;5.30;99.90;;;;;;5095053;28;20044;-60
2023/11/17 05:29:02;;;;;;;8.10;2.53;;;5.30;99.90;;;;;;5095184;28;20044;-60
2023/11/17 05:31:29;;;;;;;5.32;2.20;;;5.30;99.90;;;;;;5094807;28;20039;-60
2023/11/17 05:33:57;;;;;;;6.85;2.53;;;5.30;99.90;;;;;;5095110;28;20052;-59
2023/11/17 05:36:24;;;;;;;7.20;2.55;;;5.30;99.90;;;;;;5093606;28;20048;-60
2023/11/17 05:38:51;;;;;;;5.93;2.00;;;5.20;99.90;;;;;;5093457;28;20055;-60
2023/11/17 05:41:22;;;;;;;8.80;2.53;;;5.20;99.90;;;;;;5093574;28;20463;-60
2023/11/17 05:43:49;;;;;;;5.57;2.22;;;5.20;99.90;;;;;;5095070;28;20048;-60
2023/11/17 05:46:16;;;;;;;6.82;2.50;;;5.20;99.90;;;;;;5094937;28;20492;-60
2023/11/17 05:48:42;;;;;;;5.28;2.30;;;5.20;99.90;;;;;;5094227;28;20036;-60
2023/11/17 05:51:09;;;;;;;8.05;2.55;;;5.20;99.90;;;;;;5094821;28;20451;-61
2023/11/17 05:53:37;;;;;;;6.70;2.35;;;5.20;99.90;;;;;;5094419;28;20040;-60
2023/11/17 05:56:04;;;;;;;6.47;2.38;;;5.20;99.90;;;;;;5093552;28;20111;-60
2023/11/17 05:58:31;;;;;;;7.82;2.53;;;5.20;99.90;;;;;;5094299;28;20472;-59
2023/11/17 06:00:58;;;;;;;10.98;2.55;;;5.20;99.90;;;;;;5094883;28;20071;-60
2023/11/17 06:03:25;;;;;;;8.93;2.67;;;5.20;99.90;;;;;;5094685;28;20373;-60
2023/11/17 06:05:55;;;;;;;5.63;2.40;;;5.20;99.90;;;;;;5094341;28;20080;-59
2023/11/17 06:08:22;;;;;;;4.72;2.53;;;5.10;99.90;;;;;;5094079;28;20380;-60
2023/11/17 06:10:48;;;;;;;5.38;2.70;;;5.10;99.90;;;;;;5094227;28;20048;-67
2023/11/17 06:13:15;;;;;;;6.63;2.63;;;5.10;99.90;;;;;;5094474;28;20044;-66
2023/11/17 06:15:42;;;;;;;7.68;2.30;;;5.10;99.90;;;;;;5094325;28;20047;-66
2023/11/17 06:18:11;;;;;;;6.95;2.38;;;5.10;99.90;;;;;;5093407;28;20088;-66
2023/11/17 06:20:38;;;;;;;6.90;2.55;;;5.00;99.90;;;;;;5093830;28;20090;-66
2023/11/17 06:23:06;;;;;;;7.00;2.70;;;5.00;99.90;;;;;;5094007;28;20041;-66
2023/11/17 06:25:33;;;;;;;10.23;2.80;;;5.00;99.90;;;;;;5094121;28;20074;-60
2023/11/17 06:27:59;;;;;;;10.02;3.08;;;5.00;99.90;;;;;;5092688;28;20047;-60
2023/11/17 06:30:26;;;;;;;6.65;2.85;;;5.00;99.90;;;;;;5092473;28;20097;-60
2023/11/17 06:32:53;;;;;;;9.00;3.10;;;5.00;99.90;;;;;;5093833;28;20035;-61
2023/11/17 06:35:21;;;;;;;8.32;3.10;;;5.00;99.90;;;;;;5093739;28;20056;-60
2023/11/17 06:37:48;;;;;;;7.30;3.10;;;5.00;99.90;;;;;;5093878;28;20078;-60
2023/11/17 06:40:15;;;;;;;5.90;2.83;;;5.00;99.90;;;;;;5094114;28;20032;-60
2023/11/17 06:42:43;;;;;;;6.20;2.90;;;4.90;99.90;;;;;;5094034;28;20044;-60
2023/11/17 06:45:13;;;;;;;8.00;3.00;;;4.90;99.90;;;;;;5093706;28;20050;-60
2023/11/17 06:47:40;;;;;;;11.07;3.50;;;4.90;99.90;;;;;;5092608;28;20454;-60
2023/11/17 06:50:07;;;;;;;7.35;2.78;;;4.90;99.90;;;;;;5093901;28;20114;-61
2023/11/17 06:52:34;;;;;;;10.57;3.28;;;4.90;99.90;;;;;;5093539;28;20033;-60
2023/11/17 06:55:00;;;;;;;10.48;3.53;;;4.90;99.90;;;;;;5092762;28;20040;-59
2023/11/17 06:57:32;;;;;;;11.88;3.78;;;4.90;99.90;;;;;;5094005;28;20047;-60
2023/11/17 06:59:59;;;;;;;8.50;3.30;;;4.90;99.90;;;;;;5092293;28;20040;-60
2023/11/17 07:02:28;;;;;;;8.52;3.20;;;4.80;99.90;;;;;;5092588;28;20044;-67
2023/11/17 07:04:55;;;;;;;8.48;3.42;;;4.80;99.90;;;;;;5093954;28;20384;-67
2023/11/17 07:07:24;;;;;;;7.70;3.15;;;4.80;99.90;;;;;;5093798;28;20036;-67
2023/11/17 07:09:51;;;;;;;7.63;3.45;;;4.80;99.90;;;;;;5093774;28;20145;-67
2023/11/17 07:12:19;;;;;;;9.95;3.58;;;4.80;99.90;;;;;;5093712;28;20040;-67
2023/11/17 07:14:48;;;;;;;9.50;3.83;;;4.80;99.90;;;;;;5093244;28;20032;-59
2023/11/17 07:17:15;;;;;;;8.40;3.30;;;4.80;99.90;;;;;;5092067;28;20076;-60
2023/11/17 07:19:45;;;;;;;7.82;3.47;;;4.80;99.90;;;;;;5093578;28;20453;-59
2023/11/17 07:22:11;;;;;;;11.32;3.53;;;4.70;99.90;;;;;;5092432;28;20480;-60
2023/11/17 07:24:39;;;;;;;12.48;3.80;;;4.70;99.90;;;;;;5093599;28;20040;-59
2023/11/17 07:27:07;;;;;;;10.93;3.85;;;4.70;99.90;;;;;;5093200;28;20115;-59
2023/11/17 07:29:36;;;;;;;11.32;4.07;;;4.60;99.90;;;;;;5096573;28;20036;-59
2023/11/17 07:32:04;;;;;;;9.43;3.88;;;4.60;99.90;;;;;;5097325;28;20044;-59
2023/11/17 07:34:31;;;;;;;12.57;4.22;;;4.60;99.90;;;;;;5097352;28;20044;-60
2023/11/17 07:36:58;;;;;;;12.73;3.70;;;4.60;99.90;;;;;;5097560;28;20364;-63
2023/11/17 07:39:25;;;;;;;8.70;3.67;;;4.50;99.90;;;;;;5096736;28;20040;-60
2023/11/17 07:41:53;;;;;;;9.90;4.00;;;4.50;99.90;;;;;;5096856;28;20565;-60
2023/11/17 07:44:20;;;;;;;11.82;4.25;;;4.50;99.90;;;;;;5078664;28;20135;-59
2023/11/17 07:46:47;;;;;;;9.00;4.28;;;4.50;99.90;;;;;;5096814;28;20047;-60
2023/11/17 07:49:15;;;;;;;11.50;4.60;;;4.50;99.90;;;;;;5095081;28;20081;-59
2023/11/17 07:51:47;;;;;;;6.95;4.22;;;4.50;99.90;;;;;;5096441;28;20036;-67
2023/11/17 07:54:16;;;;;;;9.95;4.05;;;4.50;99.90;;;;;;5096405;28;20044;-67
2023/11/17 07:56:45;;;;;;;15.05;4.10;;;4.50;99.90;;;;;;5096314;28;20485;-67
2023/11/17 07:59:12;;;;;;;9.55;4.03;;;4.50;99.90;;;;;;5096447;28;20044;-67
2023/11/17 08:01:39;;;;;;;6.95;3.85;;;4.50;99.90;;;;;;5097199;28;20048;-67
2023/11/17 08:04:08;;;;;;;11.57;4.40;;;4.60;99.90;;;;;;5096633;28;20074;-67
2023/11/17 08:06:35;;;;;;;9.85;3.88;;;4.60;99.90;;;;;;5096260;28;20064;-67
2023/11/17 08:09:03;;;;;;;9.77;3.90;;;4.60;99.90;;;;;;5096570;28;20074;-67
2023/11/17 08:11:30;;;;;;;6.93;4.03;;;4.60;99.90;;;;;;5096769;28;20369;-67
2023/11/17 08:13:57;;;;;;;12.93;5.78;;;4.60;99.90;;;;;;5095342;28;20047;-67
2023/11/17 08:16:26;;;;;;;8.85;4.45;;;4.60;99.90;;;;;;5095919;28;20455;-67
2023/11/17 08:18:53;;;;;;;10.00;3.80;;;4.70;99.90;;;;;;5096315;28;20040;-67
2023/11/17 08:21:23;;;;;;;10.73;3.97;;;4.70;99.90;;;;;;5096390;28;20040;-67
2023/11/17 08:23:51;;;;;;;8.68;4.25;;;4.70;99.90;;;;;;5095247;28;20055;-67
2023/11/17 08:26:19;;;;;;;8.07;4.07;;;4.70;99.90;;;;;;5095354;28;20118;-67
2023/11/17 08:28:46;;;;;;;10.90;4.30;;;4.80;99.90;;;;;;5096061;28;20043;-66
2023/11/17 08:31:14;;;;;;;11.05;3.88;;;4.90;99.90;;;;;;5095983;28;20144;-67
2023/11/17 08:33:42;;;;;;;11.50;4.50;;;4.90;99.90;;;;;;5096070;28;20446;-67
2023/11/17 08:36:09;;;;;;;11.07;3.90;;;4.90;99.90;;;;;;5095866;28;20051;-66
2023/11/17 08:38:36;;;;;;;7.60;3.97;;;4.90;99.90;;;;;;5095037;28;20043;-67
2023/11/17 08:41:04;;;;;;;12.43;4.63;;;5.00;99.90;;;;;;5094289;28;20530;-67
2023/11/17 08:43:31;;;;;;;9.40;4.07;;;5.00;99.90;;;;;;5095809;28;20047;-67
2023/11/17 08:45:58;;;;;;;14.27;4.13;;;5.10;99.90;;;;;;5095673;28;20049;-66
2023/11/17 08:48:25;;;;;;;10.77;4.00;;;5.10;99.90;;;;;;5088446;28;20423;-66
2023/11/17 08:50:52;;;;;;;8.55;3.95;;;5.10;99.90;;;;;;5078895;28;20064;-67
2023/11/17 08:53:18;;;;;;;12.35;4.40;;;5.10;99.90;;;;;;5083271;28;20538;-67
2023/11/17 08:55:45;;;;;;;17.17;5.22;;;5.20;99.90;;;;;;5074032;28;20040;-67
2023/11/17 08:58:13;;;;;;;12.77;4.70;;;5.20;99.90;;;;;;5073669;28;20048;-67
2023/11/17 09:00:40;;;;;;;9.48;3.95;;;5.30;99.90;;;;;;5088795;28;20047;-67
2023/11/17 09:03:09;;;;;;;9.90;4.47;;;5.30;99.90;;;;;;5088064;28;20068;-67
2023/11/17 09:05:36;;;;;;;7.25;3.67;;;5.40;99.90;;;;;;5086484;28;20055;-66
2023/11/17 09:08:03;;;;;;;8.50;4.15;;;5.40;99.90;;;;;;5088924;28;20397;-65
2023/11/17 09:10:31;;;;;;;9.95;3.80;;;5.40;99.90;;;;;;5074631;28;20041;-66
2023/11/17 09:12:58;;;;;;;11.30;4.00;;;5.50;99.90;;;;;;5078785;28;20420;-66
2023/11/17 09:15:25;;;;;;;8.23;3.97;;;5.50;99.90;;;;;;5087684;28;20481;-65
2023/11/17 09:17:51;;;;;;;10.82;3.78;;;5.60;99.90;;;;;;5079585;28;20050;-65
2023/11/17 09:20:21;;;;;;;9.60;3.60;;;5.70;99.90;;;;;;5074677;28;20139;-66
2023/11/17 09:22:47;;;;;;;9.00;3.40;;;5.70;99.90;;;;;;5074752;28;20162;-66
2023/11/17 09:25:14;;;;;;;8.75;3.50;;;5.70;99.90;;;;;;5074475;28;20056;-66
2023/11/17 09:27:44;;;;;;;14.75;4.15;;;5.80;99.90;;;;;;5091477;28;20413;-66
2023/11/17 09:30:12;;;;;;;10.60;4.07;;;5.90;99.90;;;;;;5073250;28;20493;-65
2023/11/17 09:32:39;;;;;;;12.48;3.25;;;5.90;99.90;;;;;;5074401;28;20041;-65
2023/11/17 09:35:13;;;;;;;10.35;3.33;;;6.00;99.90;;;;;;5074161;28;20063;-66
2023/11/17 09:37:40;;;;;;;10.20;3.40;;;6.00;99.90;;;;;;5074698;28;20041;-66
2023/11/17 09:40:10;;;;;;;13.02;3.75;;;6.10;99.90;;;;;;5080654;28;20472;-66
2023/11/17 09:42:37;;;;;;;10.25;3.25;;;6.20;99.90;;;;;;5093260;28;20040;-66
2023/11/17 09:45:04;;;;;;;11.85;3.45;;;6.20;99.90;;;;;;5074040;28;20041;-59
2023/11/17 09:47:31;;;;;;;9.05;3.03;;;6.30;99.90;;;;;;5074055;28;20397;-59
2023/11/17 09:49:59;;;;;;;13.63;3.58;;;6.30;99.90;;;;;;5072880;28;20447;-61
2023/11/17 09:52:26;;;;;;;9.38;3.15;;;6.40;99.90;;;;;;5087350;28;20044;-63
2023/11/17 09:54:52;;;;;;;10.85;3.45;;;6.40;99.90;;;;;;5075844;28;20045;-61
2023/11/17 09:57:19;;;;;;;9.10;2.70;;;6.40;99.90;;;;;;5073784;28;20127;-60
2023/11/17 09:59:47;;;;;;;7.85;2.95;;;6.50;99.90;;;;;;5072690;28;20040;-60
2023/11/17 10:02:15;;;;;;;10.23;3.15;;;6.50;99.90;;;;;;5076010;28;20108;-61
2023/11/17 10:04:42;;;;;;;11.65;3.58;;;6.50;99.90;;;;;;5073179;28;20067;-60
2023/11/17 10:07:09;;;;;;;9.05;3.08;;;6.60;99.90;;;;;;5073504;28;20124;-68
2023/11/17 10:09:36;;;;;;;9.90;2.85;;;6.60;99.90;;;;;;5087607;28;20089;-68
2023/11/17 10:12:04;;;;;;;10.05;2.75;;;6.70;99.90;;;;;;5078116;28;20032;-67
2023/11/17 10:14:32;;;;;;;10.57;3.20;;;6.70;99.90;;;;;;5073885;28;20041;-67
2023/11/17 10:16:59;;;;;;;8.27;2.90;;;6.80;99.90;;;;;;5072906;28;20404;-67
2023/11/17 10:19:26;;;;;;;9.85;2.72;;;6.80;99.90;;;;;;5072530;28;20127;-68
2023/11/17 10:21:53;;;;;;;8.05;3.40;;;6.90;99.90;;;;;;5085930;28;20054;-67
2023/11/17 10:24:24;;;;;;;10.55;2.75;;;6.90;99.90;;;;;;5092846;28;20048;-67
2023/11/17 10:26:51;;;;;;;10.15;3.10;;;7.00;99.90;;;;;;5092885;28;20044;-68
2023/11/17 10:29:18;;;;;;;8.25;2.92;;;7.00;99.90;;;;;;5078605;28;20489;-67
2023/11/17 10:31:46;;;;;;;11.23;3.50;;;7.00;99.90;;;;;;5071791;28;20374;-66
2023/11/17 10:34:14;;;;;;;9.32;3.13;;;7.00;99.90;;;;;;5073079;28;20057;-67
2023/11/17 10:36:41;;;;;;;12.15;2.88;;;7.00;99.90;;;;;;5073408;28;20496;-67
2023/11/17 10:39:10;;;;;;;11.23;3.03;;;7.10;99.90;;;;;;5073252;28;20036;-67
2023/11/17 10:41:36;;;;;;;10.25;3.15;;;7.10;99.90;;;;;;5072261;28;20115;-66
2023/11/17 10:44:03;;;;;;;15.23;2.78;;;7.20;99.90;;;;;;5072990;28;20127;-67
2023/11/17 10:46:31;;;;;;;14.18;3.20;;;7.20;99.90;;;;;;5071817;28;20136;-67
2023/11/17 10:48:58;;;;;;;10.80;2.40;;;7.20;99.90;;;;;;5073261;28;20044;-66
2023/11/17 10:51:26;;;;;;;13.77;2.83;;;7.30;99.90;;;;;;5082009;28;20064;-66
2023/11/17 10:53:53;;;;;;;15.63;2.92;;;7.30;99.90;;;;;;5092377;28;20127;-67
2023/11/17 10:56:24;;;;;;;15.35;2.70;;;7.30;99.90;;;;;;5092426;28;20036;-66
2023/11/17 10:58:51;;;;;;;10.20;2.75;;;7.30;99.90;;;;;;5087953;28;20430;-66
2023/11/17 11:01:18;;;;;;;15.27;3.22;;;7.40;99.90;;;;;;5077325;28;20041;-67
2023/11/17 11:03:45;;;;;;;11.85;2.58;;;7.40;99.90;;;;;;5083375;28;20046;-66
2023/11/17 11:06:13;;;;;;;15.60;3.75;;;7.40;99.90;;;;;;5096510;28;20123;-66
2023/11/17 11:08:40;;;;;;;10.68;3.53;;;7.50;99.90;;;;;;5096651;28;20037;-67
2023/11/17 11:11:07;;;;;;;11.10;3.15;;;7.60;99.90;;;;;;5096590;28;20040;-66
2023/11/17 11:13:34;;;;;;;9.70;2.13;;;7.70;99.90;;;;;;5096173;28;20093;-66
2023/11/17 11:16:05;;;;;;;13.70;3.15;;;7.70;99.90;;;;;;5096549;28;20048;-67
2023/11/17 11:18:35;;;;;;;10.35;2.40;;;7.80;99.90;;;;;;5096159;28;20083;-66
2023/11/17 11:21:02;;;;;;;14.20;2.50;;;7.80;99.90;;;;;;5096392;28;20036;-66
2023/11/17 11:23:28;;;;;;;10.38;3.13;;;7.80;99.90;;;;;;5096824;28;20044;-67
2023/11/17 11:25:55;;;;;;;12.75;2.83;;;7.80;99.90;;;;;;5096419;28;20039;-67
2023/11/17 11:28:22;;;;;;;10.55;2.30;;;7.90;99.90;;;;;;5096453;28;20114;-67
2023/11/17 11:30:49;;;;;;;11.18;2.92;;;7.90;99.90;;;;;;5096387;28;20032;-67
2023/11/17 11:33:20;;;;;;;12.85;2.50;;;8.00;99.90;;;;;;5096693;28;20109;-59
2023/11/17 11:35:47;;;;;;;9.85;2.10;;;8.00;99.90;;;;;;5095504;28;20052;-60
2023/11/17 11:38:14;;;;;;;11.73;2.47;;;8.00;99.90;;;;;;5076445;28;20049;-60
2023/11/17 11:40:43;;;;;;;14.13;2.30;;;8.10;99.90;;;;;;5076347;28;20045;-60
2023/11/17 11:43:10;;;;;;;15.30;2.53;;;8.10;99.90;;;;;;5076658;28;20131;-59
2023/11/17 11:45:37;;;;;;;12.40;3.00;;;8.10;99.90;;;;;;5076450;28;20552;-60
2023/11/17 11:48:07;;;;;;;13.32;2.85;;;8.10;99.90;;;;;;5076150;28;20044;-60
2023/11/17 11:50:37;;;;;;;13.68;3.20;;;8.20;99.90;;;;;;5085920;28;20392;-60
2023/11/17 11:53:05;;;;;;;10.23;2.45;;;8.30;99.90;;;;;;5079720;28;20095;-68
2023/11/17 11:55:32;;;;;;;11.13;2.85;;;8.40;99.90;;;;;;5085980;28;20039;-68
2023/11/17 11:57:59;;;;;;;12.05;2.65;;;8.40;99.90;;;;;;5096259;28;20048;-69
2023/11/17 12:00:26;;;;;;;11.63;2.60;;;8.40;99.90;;;;;;5096089;28;20413;-67
2023/11/17 12:02:53;;;;;;;14.13;2.63;;;8.40;99.90;;;;;;5092490;28;20040;-68
2023/11/17 12:05:20;;;;;;;12.70;2.60;;;8.40;99.90;;;;;;5080035;28;20406;-67
2023/11/17 12:07:47;;;;;;;12.88;2.53;;;8.50;99.90;;;;;;5084180;28;20052;-67
2023/11/17 12:10:15;;;;;;;12.40;2.75;;;8.50;99.90;;;;;;5095335;28;20044;-65
2023/11/17 12:12:42;;;;;;;13.70;2.70;;;8.60;99.90;;;;;;5085674;28;20048;-66
2023/11/17 12:15:12;;;;;;;15.18;3.72;;;8.60;99.90;;;;;;5082126;28;20043;-66
2023/11/17 12:17:38;;;;;;;9.02;2.70;;;8.60;99.90;;;;;;5091493;28;20114;-67
2023/11/17 12:20:06;;;;;;;16.95;3.60;;;8.70;99.90;;;;;;5094331;28;20040;-66
2023/11/17 12:22:32;;;;;;;13.68;3.10;;;8.70;99.90;;;;;;5095906;28;20036;-66
2023/11/17 12:25:04;;;;;;;12.52;2.53;;;8.70;99.90;;;;;;5086848;28;20102;-67
2023/11/17 12:27:31;;;;;;;12.98;2.83;;;8.80;99.90;;;;;;5095636;28;20067;-66
2023/11/17 12:29:57;;;;;;;14.55;2.90;;;8.80;99.90;;;;;;5090871;28;20044;-67
2023/11/17 12:32:24;;;;;;;13.70;2.67;;;8.80;99.90;;;;;;5095532;28;20079;-67
2023/11/17 12:34:51;;;;;;;15.35;3.40;;;8.80;99.90;;;;;;5088981;28;20094;-65
2023/11/17 12:37:18;;;;;;;14.82;2.97;;;8.80;99.90;;;;;;5075963;28;20102;-66
2023/11/17 12:39:45;;;;;;;11.52;2.67;;;8.80;99.90;;;;;;5076048;28;20508;-67
2023/11/17 12:42:12;;;;;;;14.88;3.13;;;8.80;99.90;;;;;;5074620;28;20053;-66
2023/11/17 12:44:38;;;;;;;11.35;2.80;;;8.80;99.90;;;;;;5075922;28;20477;-67
2023/11/17 12:47:08;;;;;;;15.43;3.42;;;8.90;99.90;;;;;;5076084;28;20387;-66
2023/11/17 12:49:51;;;;;;;14.45;2.58;;;8.90;99.90;;;;;;5095019;28;20480;-66
2023/11/17 12:52:18;;;;;;;11.18;2.20;;;8.90;99.90;;;;;;5095023;28;20036;-67
2023/11/17 12:54:45;;;;;;;12.85;3.00;;;8.90;99.90;;;;;;5088732;28;20117;-67